Due to severe server failure at the provider, not all demo sites are operational. Will take some days to rebuilt everything.

Demonstration site - Click on the  for more information

This is an optional block. Switch it on/off in your settings-file: $SITE['bannerTop'] = false; or $SITE['bannerBottom'] = false;

You can display ads, any other important text or photo’s using text / html or PHP code.

You can place one or more at the top and or bottom and it can all be different for content / size .



Visit our other weather sites:

Template documentation
and downloads

And another site



Nearby METAR Reports

   
EBAW - Antwerp
Updated: 29-05-2020 09:20
Clear  
Clear  
   Wind: ENE 7.4 km/h
Wind: ENE 7.4 km/h
Temperature: 14°C
Dew Point: 6°C
Humidity: 59%
Barometer: 1029 hPa
Visibility: More than 10 km
Cloud details: Clear ft
EBAW 290720Z 07004KT 010V110 CAVOK 14/06 Q1029 NOSIG
EBLG - Liège
Updated: 29-05-2020 09:20
Clear  
Clear  
   Wind: ENE 9.3 km/h
Wind: ENE 9.3 km/h
Temperature: 16°C
Dew Point: 5°C
Humidity: 48%
Barometer: 1028 hPa
Visibility: More than 10 km
Cloud details: Clear ft
EBLG 290720Z 06005KT 030V090 CAVOK 16/05 Q1028 NOSIG
EBCV - Mons/Bergen
Updated: 29-05-2020 09:25
Clear  
Clear  
   Wind: ENE 13 km/h
Wind: ENE 13 km/h
Temperature: 15°C
Dew Point: 5°C
Humidity: 51%
Barometer: 1028 hPa
Clouds: Clear
Visibility: More than 10 km
Cloud details: Clear ft
EBCV 290725Z AUTO 06007KT 9999 NCD 15/05 Q1028 BLU
EHBK - Maastricht
Updated: 29-05-2020 09:25
Clear  
Clear  
   Wind: NE 9.3 km/h
Wind: NE 9.3 km/h
Temperature: 15°C
Dew Point: 6°C
Humidity: 55%
Barometer: 1028 hPa
Clouds: Clear
Visibility: More than 10 km
Cloud details: Clear ft
EHBK 290725Z AUTO 05005KT 360V100 9999 NCD 15/06 Q1028 NOSIG
ELLX - Luxemburg
Updated: 29-05-2020 09:20
Clear  
Clear  
   Wind: NE 13 km/h
Wind: NE 13 km/h
Temperature: 15°C
Dew Point: 4°C
Humidity: 48%
Barometer: 1027 hPa
Clouds: Clear
Visibility: More than 10 km
Cloud details: Clear ft
ELLX 290720Z AUTO 05007KT 010V070 9999 NCD 15/04 Q1027 NOSIG
EBOS - Oostende
Updated: 29-05-2020 09:20
Clear  
Clear  
   Wind: East 14.8 km/h
Wind: East 14.8 km/h
Temperature: 14°C
Dew Point: 7°C
Humidity: 63%
Barometer: 1029 hPa
Visibility: More than 10 km
Cloud details: Clear ft
EBOS 290720Z 08008KT CAVOK 14/07 Q1029 NOSIG

Script developed by  Saratoga-weather.org Adapted for the template by  Weerstation Leuven

You find our weather info also at:

FRWN

Equipment we use:

Provider
Robohost

Robohost

This is an optional block. Switch it on/off in your settings-file: $SITE['bannerTop'] = false; or $SITE['bannerBottom'] = false;

You can display ads, any other important text or photo’s using text / html or PHP code.

You can place one or more at the top and or bottom and it can all be different for content / size .